createdAt,value
2017-12-10T00:00:13.460Z,62.30
2017-12-10T00:02:41.074Z,62.30
2017-12-10T00:05:09.444Z,62.50
2017-12-10T00:07:37.039Z,62.50
2017-12-10T00:10:04.936Z,62.40
2017-12-10T00:12:32.510Z,62.40
2017-12-10T00:15:00.193Z,62.70
2017-12-10T00:17:27.747Z,62.90
2017-12-10T00:19:55.465Z,63.20
2017-12-10T00:22:23.113Z,63.30
2017-12-10T00:24:50.730Z,63.40
2017-12-10T00:27:18.364Z,63.30
2017-12-10T00:29:46.022Z,63.50
2017-12-10T00:32:13.711Z,63.50
2017-12-10T00:34:41.325Z,63.70
2017-12-10T00:37:08.953Z,63.90
2017-12-10T00:39:36.595Z,64.30
2017-12-10T00:42:04.155Z,64.00
2017-12-10T00:44:31.817Z,64.30
2017-12-10T00:46:59.485Z,64.30
2017-12-10T00:49:27.155Z,64.30
2017-12-10T00:51:54.821Z,64.30
2017-12-10T00:54:22.514Z,64.50
2017-12-10T00:56:50.156Z,65.00
2017-12-10T00:59:18.547Z,64.90
2017-12-10T01:01:46.893Z,65.10
2017-12-10T01:04:14.708Z,65.00
2017-12-10T01:06:43.154Z,65.20
2017-12-10T01:09:10.787Z,65.10
2017-12-10T01:11:38.398Z,66.00
2017-12-10T01:14:06.854Z,64.80
2017-12-10T01:16:34.469Z,64.70
2017-12-10T01:19:02.050Z,64.60
2017-12-10T01:21:29.665Z,64.80
2017-12-10T01:23:58.083Z,64.80
2017-12-10T01:26:25.639Z,64.60
2017-12-10T01:28:53.298Z,64.80
2017-12-10T01:31:20.956Z,64.90
2017-12-10T01:33:48.515Z,65.30
2017-12-10T01:36:16.159Z,64.40
2017-12-10T01:38:44.577Z,64.20
2017-12-10T01:41:12.289Z,64.20
2017-12-10T01:43:40.694Z,64.10
2017-12-10T01:46:08.324Z,64.00
2017-12-10T01:48:36.014Z,63.70
2017-12-10T01:51:03.699Z,63.50
2017-12-10T01:53:31.334Z,63.60
2017-12-10T01:55:58.948Z,63.70
2017-12-10T01:58:26.565Z,63.90
2017-12-10T02:00:54.208Z,64.00
2017-12-10T02:03:21.853Z,64.00
2017-12-10T02:05:49.643Z,64.00
2017-12-10T02:08:17.330Z,63.80
2017-12-10T02:10:44.896Z,64.20
2017-12-10T02:13:12.520Z,64.60
2017-12-10T02:15:40.202Z,64.50
2017-12-10T02:18:07.896Z,64.50
2017-12-10T02:20:35.532Z,64.50
2017-12-10T02:23:03.208Z,65.00
2017-12-10T02:25:30.777Z,64.30
2017-12-10T02:27:58.533Z,64.20
2017-12-10T02:30:26.201Z,64.50
2017-12-10T02:32:53.789Z,64.70
2017-12-10T02:35:21.458Z,64.50
2017-12-10T02:37:49.883Z,64.00
2017-12-10T02:40:17.633Z,63.90
2017-12-10T02:42:46.047Z,63.60
2017-12-10T02:45:13.810Z,63.60
2017-12-10T02:47:41.586Z,63.50
2017-12-10T02:50:09.168Z,63.50
2017-12-10T02:52:36.858Z,63.50
2017-12-10T02:55:05.186Z,63.80
2017-12-10T02:57:32.952Z,63.80
2017-12-10T03:00:00.617Z,63.90
2017-12-10T03:02:28.204Z,64.10
2017-12-10T03:04:56.693Z,64.30
2017-12-10T03:07:24.368Z,64.30
2017-12-10T03:09:52.086Z,64.60
2017-12-10T03:12:19.867Z,64.60
2017-12-10T03:14:47.533Z,64.80
2017-12-10T03:17:15.254Z,64.70
2017-12-10T03:19:42.917Z,64.80
2017-12-10T03:22:10.787Z,64.70
2017-12-10T03:24:38.442Z,65.00
2017-12-10T03:27:06.261Z,65.20
2017-12-10T03:29:34.701Z,65.40
2017-12-10T03:32:02.293Z,65.40
2017-12-10T03:34:30.187Z,65.70
2017-12-10T03:36:57.838Z,65.60
2017-12-10T03:39:26.242Z,65.70
2017-12-10T03:41:54.909Z,65.80
2017-12-10T03:44:22.595Z,65.80
2017-12-10T03:46:50.378Z,66.00
2017-12-10T03:49:18.112Z,66.00
2017-12-10T03:51:45.856Z,66.30
2017-12-10T03:54:13.627Z,66.20
2017-12-10T03:56:41.439Z,66.20
2017-12-10T03:59:09.086Z,66.40
2017-12-10T04:01:39.394Z,66.10
2017-12-10T04:04:07.001Z,66.40
2017-12-10T04:06:34.666Z,66.30
2017-12-10T04:09:02.326Z,66.20
2017-12-10T04:11:30.013Z,66.40
2017-12-10T04:13:57.655Z,66.80
2017-12-10T04:16:25.284Z,66.80
2017-12-10T04:18:52.987Z,66.50
2017-12-10T04:21:20.577Z,66.40
2017-12-10T04:23:48.139Z,66.30
2017-12-10T04:26:15.834Z,66.10
2017-12-10T04:28:43.437Z,65.70
2017-12-10T04:31:11.063Z,65.60
2017-12-10T04:33:38.624Z,65.40
2017-12-10T04:36:06.260Z,65.20
2017-12-10T04:38:34.681Z,64.90
2017-12-10T04:41:02.254Z,64.90
2017-12-10T04:43:29.909Z,64.70
2017-12-10T04:45:57.531Z,64.90
2017-12-10T04:48:25.965Z,64.70
2017-12-10T04:50:53.607Z,64.60
2017-12-10T04:53:21.488Z,64.60
2017-12-10T04:55:49.421Z,64.20
2017-12-10T04:58:17.133Z,64.10
2017-12-10T05:00:44.780Z,64.00
2017-12-10T05:03:12.925Z,64.20
2017-12-10T05:05:43.403Z,63.20
2017-12-10T05:08:11.255Z,63.20
2017-12-10T05:10:38.984Z,63.30
2017-12-10T05:13:06.617Z,63.00
2017-12-10T05:15:34.362Z,62.70
2017-12-10T05:18:02.066Z,62.50
2017-12-10T05:20:29.685Z,61.80
2017-12-10T05:22:57.348Z,61.80
2017-12-10T05:25:24.895Z,62.00
2017-12-10T05:27:52.590Z,62.00
2017-12-10T05:30:20.261Z,61.90
2017-12-10T05:32:48.630Z,62.40
2017-12-10T05:35:16.244Z,62.40
2017-12-10T05:37:43.884Z,61.90
2017-12-10T05:40:11.614Z,61.40
2017-12-10T05:42:39.493Z,61.90
2017-12-10T05:45:07.247Z,61.90
2017-12-10T05:47:35.635Z,62.20
2017-12-10T05:50:03.323Z,62.20
2017-12-10T05:52:31.022Z,61.40
2017-12-10T05:54:58.819Z,62.10
2017-12-10T05:57:26.730Z,62.20
2017-12-10T05:59:54.328Z,61.50
2017-12-10T06:02:22.065Z,61.20
2017-12-10T06:04:49.697Z,61.30
2017-12-10T06:07:17.336Z,61.50
2017-12-10T06:09:45.009Z,61.50
2017-12-10T06:12:12.758Z,61.10
2017-12-10T06:14:40.424Z,61.00
2017-12-10T06:17:08.181Z,60.70
2017-12-10T06:19:36.080Z,60.90
2017-12-10T06:22:04.468Z,60.80
2017-12-10T06:24:32.110Z,60.70
2017-12-10T06:27:00.007Z,60.40
2017-12-10T06:29:27.654Z,60.20
2017-12-10T06:31:55.597Z,60.10
2017-12-10T06:34:23.455Z,59.60
2017-12-10T06:36:51.009Z,59.70
2017-12-10T06:39:18.625Z,59.60
2017-12-10T06:41:46.206Z,59.80
2017-12-10T06:44:13.926Z,59.20
2017-12-10T06:46:41.569Z,58.90
2017-12-10T06:49:09.199Z,58.80
2017-12-10T06:51:36.804Z,58.90
2017-12-10T06:54:04.466Z,58.50
2017-12-10T06:56:32.815Z,58.20
2017-12-10T06:59:00.598Z,58.10
2017-12-10T07:01:28.358Z,58.70
2017-12-10T07:03:55.929Z,58.60
2017-12-10T07:06:23.653Z,58.50
2017-12-10T07:08:51.480Z,58.30
2017-12-10T07:11:19.952Z,58.40
2017-12-10T07:13:47.662Z,58.30
2017-12-10T07:16:15.467Z,58.50
2017-12-10T07:18:43.202Z,58.40
2017-12-10T07:21:10.788Z,58.00
2017-12-10T07:23:38.402Z,58.60
2017-12-10T07:26:06.141Z,58.20
2017-12-10T07:28:33.773Z,58.20
2017-12-10T07:31:01.486Z,58.00
2017-12-10T07:33:29.094Z,58.20
2017-12-10T07:35:56.839Z,58.30
2017-12-10T07:38:24.461Z,58.40
2017-12-10T07:40:52.835Z,58.30
2017-12-10T07:43:20.561Z,58.20
2017-12-10T07:45:48.151Z,58.50
2017-12-10T07:48:16.654Z,58.10
2017-12-10T07:50:44.429Z,58.00
2017-12-10T07:53:12.082Z,57.80
2017-12-10T07:55:40.470Z,58.20
2017-12-10T07:58:08.438Z,58.20
2017-12-10T08:00:36.204Z,57.80
2017-12-10T08:03:03.804Z,58.20
2017-12-10T08:05:31.486Z,57.90
2017-12-10T08:07:59.998Z,57.00
2017-12-10T08:10:28.485Z,57.20
2017-12-10T08:12:56.250Z,57.20
2017-12-10T08:15:24.002Z,57.20
2017-12-10T08:17:52.494Z,56.40
2017-12-10T08:20:20.139Z,56.40
2017-12-10T08:22:47.837Z,56.20
2017-12-10T08:25:15.406Z,56.60
2017-12-10T08:27:43.226Z,56.40
2017-12-10T08:30:11.003Z,56.60
2017-12-10T08:32:39.371Z,55.70
2017-12-10T08:35:07.849Z,55.80
2017-12-10T08:37:35.533Z,55.70
2017-12-10T08:40:03.179Z,56.00
2017-12-10T08:42:31.675Z,56.10
2017-12-10T08:44:59.376Z,56.00
2017-12-10T08:47:26.988Z,55.70
2017-12-10T08:49:54.736Z,56.50
2017-12-10T08:52:22.297Z,56.50
2017-12-10T08:54:49.897Z,56.50
2017-12-10T08:57:18.254Z,56.60
2017-12-10T08:59:45.816Z,56.60
2017-12-10T09:02:13.573Z,56.70
2017-12-10T09:04:42.013Z,56.80
2017-12-10T09:07:09.587Z,56.70
2017-12-10T09:09:37.285Z,56.90
2017-12-10T09:12:04.906Z,57.00
2017-12-10T09:14:32.500Z,56.60
2017-12-10T09:17:00.903Z,57.10
2017-12-10T09:19:29.383Z,57.40
2017-12-10T09:21:57.022Z,57.30
2017-12-10T09:24:25.370Z,57.00
2017-12-10T09:26:53.000Z,56.90
2017-12-10T09:29:20.625Z,56.90
2017-12-10T09:31:48.389Z,57.70
2017-12-10T09:34:16.149Z,57.40
2017-12-10T09:36:43.802Z,57.40
2017-12-10T09:39:11.400Z,57.30
2017-12-10T09:41:39.215Z,57.50
2017-12-10T09:44:06.818Z,57.60
2017-12-10T09:46:34.413Z,57.20
2017-12-10T09:49:02.159Z,56.90
2017-12-10T09:51:29.780Z,56.70
2017-12-10T09:53:57.435Z,56.80
2017-12-10T09:56:25.050Z,56.40
2017-12-10T09:58:52.752Z,56.10
2017-12-10T10:01:20.537Z,55.70
2017-12-10T10:03:48.093Z,55.00
2017-12-10T10:06:15.734Z,55.40
2017-12-10T10:08:43.382Z,55.10
2017-12-10T10:11:11.270Z,54.70
2017-12-10T10:13:39.762Z,54.40
2017-12-10T10:16:08.288Z,53.50
2017-12-10T10:18:36.645Z,54.80
2017-12-10T10:21:04.405Z,54.80
2017-12-10T10:23:32.093Z,56.30
2017-12-10T10:25:59.737Z,58.60
2017-12-10T10:28:27.380Z,63.10
2017-12-10T10:30:54.999Z,66.80
2017-12-10T10:33:22.586Z,69.60
2017-12-10T10:35:50.153Z,75.00
2017-12-10T10:38:17.963Z,77.70
2017-12-10T10:40:46.287Z,80.60
2017-12-10T10:43:13.961Z,80.50
2017-12-10T10:45:41.548Z,81.50
2017-12-10T10:48:09.157Z,82.50
2017-12-10T10:50:36.855Z,83.90
2017-12-10T10:53:04.739Z,84.10
2017-12-10T10:55:32.404Z,85.00
2017-12-10T10:58:00.035Z,84.30
2017-12-10T11:00:27.718Z,84.60
2017-12-10T11:02:55.477Z,85.40
2017-12-10T11:05:23.125Z,84.70
2017-12-10T11:07:50.744Z,84.80
2017-12-10T11:10:19.126Z,86.60
2017-12-10T11:12:47.550Z,85.50
2017-12-10T11:15:15.359Z,85.50
2017-12-10T11:17:43.044Z,85.50
2017-12-10T11:20:10.977Z,85.10
2017-12-10T11:22:38.836Z,85.40
2017-12-10T11:25:06.717Z,85.00
2017-12-10T11:27:34.611Z,84.30
2017-12-10T11:30:02.408Z,85.30
2017-12-10T11:32:30.005Z,86.30
2017-12-10T11:34:57.612Z,86.60
2017-12-10T11:37:25.401Z,84.40
2017-12-10T11:39:53.265Z,85.10
2017-12-10T11:42:21.130Z,84.80
2017-12-10T11:44:49.009Z,84.30
2017-12-10T11:47:16.694Z,84.40
2017-12-10T11:49:44.262Z,83.80
2017-12-10T11:52:12.875Z,83.30
2017-12-10T11:54:40.455Z,83.30
2017-12-10T11:57:08.231Z,82.80
2017-12-10T11:59:35.869Z,82.30
2017-12-10T12:02:03.474Z,83.20
2017-12-10T12:04:31.110Z,82.80
2017-12-10T12:06:58.987Z,83.90
2017-12-10T12:09:27.483Z,83.60
2017-12-10T12:11:55.266Z,83.60
2017-12-10T12:14:23.729Z,85.00
2017-12-10T12:16:51.405Z,85.00
2017-12-10T12:19:18.998Z,84.40
2017-12-10T12:21:46.728Z,84.80
2017-12-10T12:24:15.224Z,85.70
2017-12-10T12:26:42.908Z,85.70
2017-12-10T12:29:10.766Z,85.00
2017-12-10T12:31:38.597Z,83.60
2017-12-10T12:34:06.330Z,83.80
2017-12-10T12:36:34.022Z,83.00
2017-12-10T12:39:01.687Z,82.10
2017-12-10T12:41:29.449Z,82.20
2017-12-10T12:43:57.166Z,81.90
2017-12-10T12:46:24.762Z,82.80
2017-12-10T12:48:52.519Z,82.80
2017-12-10T12:51:20.158Z,82.90
2017-12-10T12:53:47.714Z,82.70
2017-12-10T12:56:15.542Z,81.90
2017-12-10T12:58:44.004Z,83.00
2017-12-10T13:01:11.634Z,82.90
2017-12-10T13:03:39.414Z,82.10
2017-12-10T13:06:07.123Z,82.50
2017-12-10T13:08:35.026Z,82.40
2017-12-10T13:11:02.799Z,82.20
2017-12-10T13:13:30.723Z,82.60
2017-12-10T13:15:58.406Z,82.40
2017-12-10T13:18:26.780Z,82.00
2017-12-10T13:20:54.443Z,82.00
2017-12-10T13:23:22.781Z,82.00
2017-12-10T13:25:50.559Z,82.00
2017-12-10T13:28:19.156Z,82.80
2017-12-10T13:30:47.057Z,82.80
2017-12-10T13:33:15.801Z,82.70
2017-12-10T13:35:43.428Z,83.00
2017-12-10T13:38:11.085Z,82.80
2017-12-10T13:40:38.698Z,83.20
2017-12-10T13:43:06.418Z,82.70
2017-12-10T13:45:34.027Z,82.80
2017-12-10T13:48:01.687Z,82.70
2017-12-10T13:50:30.484Z,83.20
2017-12-10T13:52:58.192Z,83.00
2017-12-10T13:55:25.829Z,83.00
2017-12-10T13:57:53.523Z,83.20
2017-12-10T14:00:21.119Z,83.60
2017-12-10T14:02:48.722Z,83.70
2017-12-10T14:05:16.381Z,83.70
2017-12-10T14:07:44.298Z,83.70
2017-12-10T14:10:12.017Z,83.90
2017-12-10T14:12:40.509Z,84.20
2017-12-10T14:15:08.136Z,84.10
2017-12-10T14:17:35.852Z,84.30
2017-12-10T14:20:03.493Z,84.00
2017-12-10T14:22:31.053Z,84.40
2017-12-10T14:24:58.687Z,85.10
2017-12-10T14:27:27.013Z,85.80
2017-12-10T14:29:54.673Z,85.80
2017-12-10T14:32:22.230Z,86.20
2017-12-10T14:34:49.804Z,86.90
2017-12-10T14:37:17.403Z,87.20
2017-12-10T14:39:44.968Z,87.00
2017-12-10T14:42:13.296Z,87.50
2017-12-10T14:44:40.920Z,87.40
2017-12-10T14:47:09.239Z,87.30
2017-12-10T14:49:36.831Z,87.30
2017-12-10T14:52:04.549Z,87.20
2017-12-10T14:54:32.133Z,86.50
2017-12-10T14:56:59.732Z,86.50
2017-12-10T14:59:27.323Z,86.50
2017-12-10T15:01:54.922Z,86.20
2017-12-10T15:04:22.475Z,86.00
2017-12-10T15:06:50.092Z,86.70
2017-12-10T15:09:17.638Z,86.60
2017-12-10T15:11:45.986Z,87.20
2017-12-10T15:14:13.537Z,86.60
2017-12-10T15:16:41.128Z,86.80
2017-12-10T15:19:09.461Z,86.80
2017-12-10T15:21:37.069Z,86.80
2017-12-10T15:24:05.442Z,87.10
2017-12-10T15:26:33.006Z,87.00
2017-12-10T15:29:01.366Z,87.10
2017-12-10T15:31:28.922Z,87.10
2017-12-10T15:33:56.542Z,87.30
2017-12-10T15:36:24.169Z,87.60
2017-12-10T15:38:51.737Z,87.50
2017-12-10T15:41:20.105Z,88.40
2017-12-10T15:43:47.693Z,88.30
2017-12-10T15:46:15.285Z,88.30
2017-12-10T15:48:42.897Z,88.00
2017-12-10T15:51:11.257Z,88.70
2017-12-10T15:53:38.849Z,88.70
2017-12-10T15:56:06.413Z,88.60
2017-12-10T15:58:34.008Z,88.80
2017-12-10T16:01:01.553Z,88.50
2017-12-10T16:03:29.149Z,88.60
2017-12-10T16:05:56.705Z,87.80
2017-12-10T16:08:24.254Z,87.60
2017-12-10T16:10:51.861Z,87.70
2017-12-10T16:13:19.421Z,87.40
2017-12-10T16:15:47.781Z,88.00
2017-12-10T16:18:15.338Z,87.50
2017-12-10T16:20:42.934Z,87.70
2017-12-10T16:23:11.240Z,87.50
2017-12-10T16:25:38.849Z,87.50
2017-12-10T16:28:06.426Z,87.80
2017-12-10T16:30:37.816Z,88.00
2017-12-10T16:33:05.434Z,88.40
2017-12-10T16:35:33.785Z,88.20
2017-12-10T16:38:01.382Z,88.20
2017-12-10T16:40:28.998Z,87.50
2017-12-10T16:42:56.577Z,87.60
2017-12-10T16:45:24.927Z,87.90
2017-12-10T16:47:52.537Z,87.90
2017-12-10T16:50:20.119Z,88.20
2017-12-10T16:52:47.717Z,87.70
2017-12-10T16:55:15.266Z,88.40
2017-12-10T16:57:42.868Z,88.30
2017-12-10T17:00:10.563Z,88.60
2017-12-10T17:02:38.178Z,88.20
2017-12-10T17:05:05.790Z,88.80
2017-12-10T17:07:33.364Z,88.90
2017-12-10T17:10:00.990Z,88.50
2017-12-10T17:12:28.648Z,87.90
2017-12-10T17:14:58.764Z,88.10
2017-12-10T17:17:30.410Z,88.00
2017-12-10T17:20:00.547Z,87.50
2017-12-10T17:22:30.550Z,87.20
2017-12-10T17:25:00.479Z,87.00
2017-12-10T17:27:31.545Z,86.90
2017-12-10T17:30:02.154Z,86.10
2017-12-10T17:32:30.664Z,86.70
2017-12-10T17:34:58.232Z,86.10
2017-12-10T17:37:25.873Z,85.80
2017-12-10T17:39:54.286Z,84.90
2017-12-10T17:42:21.890Z,84.90
2017-12-10T17:44:49.525Z,84.80
2017-12-10T17:47:17.220Z,85.20
2017-12-10T17:49:45.656Z,85.30
2017-12-10T17:52:13.465Z,85.20
2017-12-10T17:54:41.268Z,85.50
2017-12-10T17:57:09.037Z,85.00
2017-12-10T17:59:36.710Z,84.30
2017-12-10T18:02:04.429Z,83.80
2017-12-10T18:04:33.361Z,82.60
2017-12-10T18:07:01.062Z,82.60
2017-12-10T18:09:28.682Z,82.20
2017-12-10T18:11:56.341Z,81.90
2017-12-10T18:14:23.911Z,82.30
2017-12-10T18:16:51.840Z,82.60
2017-12-10T18:19:20.172Z,81.50
2017-12-10T18:21:47.776Z,81.50
2017-12-10T18:24:16.100Z,81.90
2017-12-10T18:26:43.681Z,81.90
2017-12-10T18:29:11.270Z,81.90
2017-12-10T18:31:38.827Z,81.70
2017-12-10T18:34:06.426Z,81.30
2017-12-10T18:36:34.000Z,81.20
2017-12-10T18:39:01.625Z,81.20
2017-12-10T18:41:30.007Z,81.70
2017-12-10T18:43:58.481Z,82.40
2017-12-10T18:46:26.864Z,82.20
2017-12-10T18:48:55.229Z,82.00
2017-12-10T18:51:22.798Z,81.70
2017-12-10T18:53:50.353Z,81.10
2017-12-10T18:56:17.950Z,81.20
2017-12-10T18:58:45.573Z,80.70
2017-12-10T19:01:13.195Z,80.80
2017-12-10T19:03:40.757Z,80.30
2017-12-10T19:06:08.401Z,80.40
2017-12-10T19:08:35.998Z,80.40
2017-12-10T19:11:03.555Z,80.40
2017-12-10T19:13:31.175Z,79.90
2017-12-10T19:15:58.785Z,80.20
2017-12-10T19:18:26.349Z,79.90
2017-12-10T19:20:53.937Z,80.50
2017-12-10T19:23:22.294Z,79.40
2017-12-10T19:25:49.915Z,79.40
2017-12-10T19:28:18.228Z,79.10
2017-12-10T19:30:45.860Z,79.00
2017-12-10T19:33:13.458Z,79.20
2017-12-10T19:35:41.928Z,78.90
2017-12-10T19:38:09.528Z,79.00
2017-12-10T19:40:37.094Z,78.90
2017-12-10T19:43:04.654Z,79.10
2017-12-10T19:45:32.262Z,79.10
2017-12-10T19:47:59.885Z,79.10
2017-12-10T19:50:27.485Z,79.50
2017-12-10T19:52:55.059Z,79.80
2017-12-10T19:55:23.448Z,78.70
2017-12-10T19:57:51.084Z,78.60
2017-12-10T20:00:18.696Z,78.00
2017-12-10T20:02:46.241Z,77.90
2017-12-10T20:05:14.575Z,77.80
2017-12-10T20:07:42.171Z,77.80
2017-12-10T20:10:10.562Z,77.40
2017-12-10T20:12:38.893Z,77.40
2017-12-10T20:15:06.492Z,77.40
2017-12-10T20:17:34.056Z,77.50
2017-12-10T20:20:02.419Z,77.20
2017-12-10T20:22:30.027Z,77.20
2017-12-10T20:24:57.629Z,77.20
2017-12-10T20:27:25.286Z,77.00
2017-12-10T20:29:52.896Z,76.70
2017-12-10T20:32:21.231Z,75.90
2017-12-10T20:34:48.873Z,75.90
2017-12-10T20:37:16.472Z,75.90
2017-12-10T20:39:44.036Z,75.80
2017-12-10T20:42:11.661Z,75.70
2017-12-10T20:44:39.237Z,75.10
2017-12-10T20:47:06.796Z,74.50
2017-12-10T20:49:34.411Z,74.80
2017-12-10T20:52:01.972Z,74.40
2017-12-10T20:54:29.560Z,73.90
2017-12-10T20:56:57.267Z,73.80
2017-12-10T20:59:24.810Z,73.70
2017-12-10T21:01:54.487Z,73.70
2017-12-10T21:04:22.095Z,73.10
2017-12-10T21:06:49.753Z,73.00
2017-12-10T21:09:17.268Z,72.90
2017-12-10T21:11:44.863Z,73.20
2017-12-10T21:14:12.426Z,73.10
2017-12-10T21:16:40.017Z,72.90
2017-12-10T21:19:08.353Z,72.70
2017-12-10T21:21:35.971Z,72.70
2017-12-10T21:24:04.329Z,72.80
2017-12-10T21:26:32.672Z,72.50
2017-12-10T21:29:00.287Z,72.40
2017-12-10T21:31:28.596Z,72.50
2017-12-10T21:33:56.154Z,72.40
2017-12-10T21:36:23.756Z,72.40
2017-12-10T21:38:51.366Z,72.20
2017-12-10T21:41:19.702Z,72.30
2017-12-10T21:43:47.260Z,72.30
2017-12-10T21:46:14.879Z,72.20
2017-12-10T21:48:42.436Z,72.00
2017-12-10T21:51:10.009Z,71.90
2017-12-10T21:53:37.612Z,71.90
2017-12-10T21:56:05.947Z,71.30
2017-12-10T21:58:33.513Z,71.20
2017-12-10T22:01:01.116Z,71.30
2017-12-10T22:03:29.482Z,71.20
2017-12-10T22:05:57.071Z,71.20
2017-12-10T22:08:24.649Z,71.40
2017-12-10T22:10:52.253Z,71.20
2017-12-10T22:13:19.812Z,71.20
2017-12-10T22:15:47.409Z,71.60
2017-12-10T22:18:15.032Z,71.80
2017-12-10T22:20:42.581Z,71.80
2017-12-10T22:23:10.218Z,71.90
2017-12-10T22:25:37.786Z,71.60
2017-12-10T22:28:05.365Z,71.60
2017-12-10T22:30:32.950Z,71.70
2017-12-10T22:33:00.557Z,72.10
2017-12-10T22:35:28.102Z,72.00
2017-12-10T22:37:55.675Z,72.00
2017-12-10T22:40:23.310Z,72.20
2017-12-10T22:42:50.910Z,72.30
2017-12-10T22:45:18.513Z,72.30
2017-12-10T22:47:46.065Z,72.30
2017-12-10T22:50:13.658Z,72.20
2017-12-10T22:52:42.034Z,72.80
2017-12-10T22:55:10.396Z,72.60
2017-12-10T22:57:38.733Z,72.70
2017-12-10T23:00:06.318Z,72.60
2017-12-10T23:02:33.903Z,72.60
2017-12-10T23:05:02.239Z,72.80
2017-12-10T23:07:29.858Z,72.60
2017-12-10T23:09:58.186Z,73.00
2017-12-10T23:12:25.796Z,72.90
2017-12-10T23:14:54.159Z,73.30
2017-12-10T23:17:21.741Z,73.30
2017-12-10T23:19:49.349Z,73.80
2017-12-10T23:22:16.952Z,73.50
2017-12-10T23:24:45.312Z,73.80
2017-12-10T23:27:12.910Z,73.70
2017-12-10T23:29:40.464Z,73.80
2017-12-10T23:32:08.061Z,74.30
2017-12-10T23:34:35.652Z,73.70
2017-12-10T23:37:03.222Z,73.60
2017-12-10T23:39:30.837Z,73.50
2017-12-10T23:41:58.467Z,73.30
2017-12-10T23:44:26.055Z,73.10
2017-12-10T23:46:53.649Z,73.10
2017-12-10T23:49:21.208Z,73.10
2017-12-10T23:51:49.749Z,73.30
2017-12-10T23:54:17.327Z,73.50
2017-12-10T23:56:44.908Z,73.80
2017-12-10T23:59:12.481Z,73.90
